sensor_id;sensor_type;location;lat;lon;timestamp;pressure;altitude;pressure_sealevel;temperature;humidity
49044;BME280;34860;48.066;14.124;2023-04-03T00:01:54;97066.09;;;6.67;60.79
49044;BME280;34860;48.066;14.124;2023-04-03T00:04:42;97064.94;;;6.64;60.92
49044;BME280;34860;48.066;14.124;2023-04-03T00:07:31;97066.94;;;6.64;60.86
49044;BME280;34860;48.066;14.124;2023-04-03T00:10:20;97059.03;;;6.62;60.70
49044;BME280;34860;48.066;14.124;2023-04-03T00:13:09;97064.16;;;6.60;60.94
49044;BME280;34860;48.066;14.124;2023-04-03T00:15:58;97072.47;;;6.57;60.79
49044;BME280;34860;48.066;14.124;2023-04-03T00:18:48;97061.03;;;6.54;60.88
49044;BME280;34860;48.066;14.124;2023-04-03T00:21:36;97068.16;;;6.52;60.75
49044;BME280;34860;48.066;14.124;2023-04-03T00:24:24;97068.53;;;6.50;60.74
49044;BME280;34860;48.066;14.124;2023-04-03T00:27:12;97064.63;;;6.48;60.91
49044;BME280;34860;48.066;14.124;2023-04-03T00:30:00;97069.75;;;6.46;60.89
49044;BME280;34860;48.066;14.124;2023-04-03T00:32:52;97073.72;;;6.45;60.94
49044;BME280;34860;48.066;14.124;2023-04-03T00:35:40;97074.50;;;6.42;60.76
49044;BME280;34860;48.066;14.124;2023-04-03T00:38:28;97076.47;;;6.41;60.92
49044;BME280;34860;48.066;14.124;2023-04-03T00:41:16;97074.91;;;6.40;60.78
49044;BME280;34860;48.066;14.124;2023-04-03T00:44:19;97070.94;;;6.38;60.83
49044;BME280;34860;48.066;14.124;2023-04-03T00:47:11;97080.41;;;6.36;60.88
49044;BME280;34860;48.066;14.124;2023-04-03T00:50:05;97080.81;;;6.35;60.78
49044;BME280;34860;48.066;14.124;2023-04-03T00:52:55;97085.56;;;6.34;60.68
49044;BME280;34860;48.066;14.124;2023-04-03T00:55:44;97086.75;;;6.33;60.82
49044;BME280;34860;48.066;14.124;2023-04-03T00:58:38;97087.94;;;6.32;60.75
49044;BME280;34860;48.066;14.124;2023-04-03T01:01:28;97087.56;;;6.30;60.85
49044;BME280;34860;48.066;14.124;2023-04-03T01:04:27;97085.19;;;6.29;60.71
49044;BME280;34860;48.066;14.124;2023-04-03T01:07:19;97095.81;;;6.27;60.80
49044;BME280;34860;48.066;14.124;2023-04-03T01:10:11;97085.19;;;6.25;60.83
49044;BME280;34860;48.066;14.124;2023-04-03T01:13:01;97076.13;;;6.25;60.81
49044;BME280;34860;48.066;14.124;2023-04-03T01:15:50;97085.56;;;6.24;60.85
49044;BME280;34860;48.066;14.124;2023-04-03T01:18:39;97082.81;;;6.24;60.82
49044;BME280;34860;48.066;14.124;2023-04-03T01:21:53;97088.72;;;6.22;60.62
49044;BME280;34860;48.066;14.124;2023-04-03T01:24:46;97087.56;;;6.20;60.72
49044;BME280;34860;48.066;14.124;2023-04-03T01:27:34;97097.84;;;6.19;60.79
49044;BME280;34860;48.066;14.124;2023-04-03T01:30:28;97093.88;;;6.20;60.81
49044;BME280;34860;48.066;14.124;2023-04-03T01:33:21;97094.66;;;6.17;60.89
49044;BME280;34860;48.066;14.124;2023-04-03T01:36:20;97089.94;;;6.17;60.72
49044;BME280;34860;48.066;14.124;2023-04-03T01:39:10;97100.19;;;6.17;60.83
49044;BME280;34860;48.066;14.124;2023-04-03T01:41:59;97093.88;;;6.16;60.77
49044;BME280;34860;48.066;14.124;2023-04-03T01:44:53;97097.81;;;6.15;60.67
49044;BME280;34860;48.066;14.124;2023-04-03T01:47:42;97102.56;;;6.15;60.66
49044;BME280;34860;48.066;14.124;2023-04-03T01:50:31;97109.25;;;6.14;60.71
49044;BME280;34860;48.066;14.124;2023-04-03T01:53:20;97094.69;;;6.13;60.73
49044;BME280;34860;48.066;14.124;2023-04-03T01:56:09;97104.94;;;6.13;60.69
49044;BME280;34860;48.066;14.124;2023-04-03T01:58:59;97105.72;;;6.13;60.73
49044;BME280;34860;48.066;14.124;2023-04-03T02:01:48;97105.72;;;6.13;60.75
49044;BME280;34860;48.066;14.124;2023-04-03T02:04:36;97094.69;;;6.13;60.73
49044;BME280;34860;48.066;14.124;2023-04-03T02:07:25;97093.91;;;6.13;60.77
49044;BME280;34860;48.066;14.124;2023-04-03T02:10:15;97098.59;;;6.12;60.65
49044;BME280;34860;48.066;14.124;2023-04-03T02:13:03;97088.78;;;6.11;60.55
49044;BME280;34860;48.066;14.124;2023-04-03T02:15:51;97092.31;;;6.12;60.70
49044;BME280;34860;48.066;14.124;2023-04-03T02:18:39;97102.16;;;6.09;60.71
49044;BME280;34860;48.066;14.124;2023-04-03T02:21:31;97101.78;;;6.07;60.66
49044;BME280;34860;48.066;14.124;2023-04-03T02:24:20;97105.72;;;6.06;60.80
49044;BME280;34860;48.066;14.124;2023-04-03T02:27:09;97102.56;;;6.04;60.74
49044;BME280;34860;48.066;14.124;2023-04-03T02:29:58;97104.53;;;6.04;60.79
49044;BME280;34860;48.066;14.124;2023-04-03T02:32:46;97106.53;;;6.03;60.76
49044;BME280;34860;48.066;14.124;2023-04-03T02:35:34;97100.19;;;6.03;60.74
49044;BME280;34860;48.066;14.124;2023-04-03T02:38:25;97097.44;;;6.03;60.76
49044;BME280;34860;48.066;14.124;2023-04-03T02:41:15;97101.41;;;6.02;60.81
49044;BME280;34860;48.066;14.124;2023-04-03T02:44:06;97106.50;;;5.99;60.82
49044;BME280;34860;48.066;14.124;2023-04-03T02:46:57;97098.63;;;5.98;60.71
49044;BME280;34860;48.066;14.124;2023-04-03T02:49:46;97100.19;;;5.95;60.87
49044;BME280;34860;48.066;14.124;2023-04-03T02:52:34;97098.22;;;5.96;60.73
49044;BME280;34860;48.066;14.124;2023-04-03T02:55:22;97105.72;;;5.95;60.84
49044;BME280;34860;48.066;14.124;2023-04-03T02:58:15;97104.91;;;5.95;60.83
49044;BME280;34860;48.066;14.124;2023-04-03T03:01:03;97106.09;;;5.94;60.76
49044;BME280;34860;48.066;14.124;2023-04-03T03:03:52;97108.06;;;5.93;60.80
49044;BME280;34860;48.066;14.124;2023-04-03T03:06:40;97111.63;;;5.87;60.90
49044;BME280;34860;48.066;14.124;2023-04-03T03:09:30;97097.84;;;5.83;60.87
49044;BME280;34860;48.066;14.124;2023-04-03T03:12:18;97104.53;;;5.82;60.96
49044;BME280;34860;48.066;14.124;2023-04-03T03:15:11;97100.97;;;5.81;60.85
49044;BME280;34860;48.066;14.124;2023-04-03T03:18:01;97102.97;;;5.81;60.93
49044;BME280;34860;48.066;14.124;2023-04-03T03:20:51;97106.50;;;5.78;60.94
49044;BME280;34860;48.066;14.124;2023-04-03T03:23:39;97101.38;;;5.73;61.11
49044;BME280;34860;48.066;14.124;2023-04-03T03:26:29;97100.59;;;5.69;61.00
49044;BME280;34860;48.066;14.124;2023-04-03T03:29:17;97103.75;;;5.67;61.06
49044;BME280;34860;48.066;14.124;2023-04-03T03:32:06;97099.41;;;5.66;61.11
49044;BME280;34860;48.066;14.124;2023-04-03T03:34:56;97106.50;;;5.67;61.01
49044;BME280;34860;48.066;14.124;2023-04-03T03:37:44;97093.50;;;5.68;60.88
49044;BME280;34860;48.066;14.124;2023-04-03T03:40:33;97101.38;;;5.69;60.82
49044;BME280;34860;48.066;14.124;2023-04-03T03:43:22;97098.22;;;5.67;60.86
49044;BME280;34860;48.066;14.124;2023-04-03T03:46:11;97110.03;;;5.68;60.82
49044;BME280;34860;48.066;14.124;2023-04-03T03:49:02;97105.72;;;5.67;60.88
49044;BME280;34860;48.066;14.124;2023-04-03T03:51:51;97101.78;;;5.64;61.03
49044;BME280;34860;48.066;14.124;2023-04-03T03:54:39;97103.34;;;5.58;61.00
49044;BME280;34860;48.066;14.124;2023-04-03T03:57:29;97102.94;;;5.56;60.91
49044;BME280;34860;48.066;14.124;2023-04-03T04:00:18;97104.94;;;5.55;61.14
49044;BME280;34860;48.066;14.124;2023-04-03T04:03:12;97103.72;;;5.56;60.97
49044;BME280;34860;48.066;14.124;2023-04-03T04:06:07;97102.56;;;5.57;60.81
49044;BME280;34860;48.066;14.124;2023-04-03T04:08:55;97096.28;;;5.57;61.10
49044;BME280;34860;48.066;14.124;2023-04-03T04:11:43;97098.59;;;5.58;60.83
49044;BME280;34860;48.066;14.124;2023-04-03T04:14:35;97098.22;;;5.60;60.85
49044;BME280;34860;48.066;14.124;2023-04-03T04:17:25;97102.56;;;5.61;60.84
49044;BME280;34860;48.066;14.124;2023-04-03T04:20:13;97100.97;;;5.60;60.78
49044;BME280;34860;48.066;14.124;2023-04-03T04:23:03;97102.94;;;5.63;60.71
49044;BME280;34860;48.066;14.124;2023-04-03T04:25:52;97107.28;;;5.60;60.78
49044;BME280;34860;48.066;14.124;2023-04-03T04:28:40;97110.03;;;5.60;60.67
49044;BME280;34860;48.066;14.124;2023-04-03T04:31:28;97109.25;;;5.60;60.74
49044;BME280;34860;48.066;14.124;2023-04-03T04:34:16;97105.31;;;5.61;60.72
49044;BME280;34860;48.066;14.124;2023-04-03T04:37:05;97120.28;;;5.60;60.73
49044;BME280;34860;48.066;14.124;2023-04-03T04:39:55;97108.84;;;5.58;60.86
49044;BME280;34860;48.066;14.124;2023-04-03T04:42:43;97115.94;;;5.59;60.76
49044;BME280;34860;48.066;14.124;2023-04-03T04:45:32;97118.31;;;5.60;60.76
49044;BME280;34860;48.066;14.124;2023-04-03T04:48:20;97117.50;;;5.60;60.66
49044;BME280;34860;48.066;14.124;2023-04-03T04:51:09;97113.97;;;5.59;60.69
49044;BME280;34860;48.066;14.124;2023-04-03T04:53:59;97126.97;;;5.59;60.76
49044;BME280;34860;48.066;14.124;2023-04-03T04:56:48;97122.25;;;5.59;60.81
49044;BME280;34860;48.066;14.124;2023-04-03T04:59:36;97127.75;;;5.59;60.86
49044;BME280;34860;48.066;14.124;2023-04-03T05:02:27;97119.88;;;5.58;60.62
49044;BME280;34860;48.066;14.124;2023-04-03T05:05:15;97124.63;;;5.57;60.73
49044;BME280;34860;48.066;14.124;2023-04-03T05:08:06;97125.78;;;5.56;60.70
49044;BME280;34860;48.066;14.124;2023-04-03T05:10:58;97121.09;;;5.57;60.72
49044;BME280;34860;48.066;14.124;2023-04-03T05:13:48;97134.88;;;5.57;60.72
49044;BME280;34860;48.066;14.124;2023-04-03T05:16:37;97129.75;;;5.55;60.78
49044;BME280;34860;48.066;14.124;2023-04-03T05:19:30;97139.56;;;5.56;60.82
49044;BME280;34860;48.066;14.124;2023-04-03T05:22:18;97138.41;;;5.54;60.72
49044;BME280;34860;48.066;14.124;2023-04-03T05:25:08;97143.91;;;5.54;60.77
49044;BME280;34860;48.066;14.124;2023-04-03T05:27:58;97145.88;;;5.53;60.81
49044;BME280;34860;48.066;14.124;2023-04-03T05:30:54;97156.91;;;5.53;60.83
49044;BME280;34860;48.066;14.124;2023-04-03T05:33:44;97156.50;;;5.51;60.76
49044;BME280;34860;48.066;14.124;2023-04-03T05:36:36;97155.72;;;5.51;60.77
49044;BME280;34860;48.066;14.124;2023-04-03T05:39:27;97150.59;;;5.49;60.84
49044;BME280;34860;48.066;14.124;2023-04-03T05:42:17;97153.34;;;5.49;60.75
49044;BME280;34860;48.066;14.124;2023-04-03T05:45:06;97155.31;;;5.49;60.85
49044;BME280;34860;48.066;14.124;2023-04-03T05:47:55;97153.75;;;5.51;60.62
49044;BME280;34860;48.066;14.124;2023-04-03T05:50:44;97152.59;;;5.52;60.74
49044;BME280;34860;48.066;14.124;2023-04-03T05:53:38;97161.25;;;5.54;60.38
49044;BME280;34860;48.066;14.124;2023-04-03T05:56:27;97158.47;;;5.54;60.81
49044;BME280;34860;48.066;14.124;2023-04-03T05:59:16;97158.09;;;5.56;60.71
49044;BME280;34860;48.066;14.124;2023-04-03T06:02:05;97169.50;;;5.58;60.62
49044;BME280;34860;48.066;14.124;2023-04-03T06:04:56;97164.38;;;5.56;60.64
49044;BME280;34860;48.066;14.124;2023-04-03T06:07:45;97165.97;;;5.57;60.79
49044;BME280;34860;48.066;14.124;2023-04-03T06:10:36;97170.72;;;5.57;60.63
49044;BME280;34860;48.066;14.124;2023-04-03T06:13:26;97165.59;;;5.59;60.63
49044;BME280;34860;48.066;14.124;2023-04-03T06:16:16;97161.63;;;5.60;60.75
49044;BME280;34860;48.066;14.124;2023-04-03T06:19:05;97168.72;;;5.61;60.69
49044;BME280;34860;48.066;14.124;2023-04-03T06:22:02;97175.44;;;5.63;60.71
49044;BME280;34860;48.066;14.124;2023-04-03T06:24:53;97169.53;;;5.65;60.72
49044;BME280;34860;48.066;14.124;2023-04-03T06:27:41;97177.41;;;5.67;60.70
49044;BME280;34860;48.066;14.124;2023-04-03T06:30:30;97173.88;;;5.70;60.56
49044;BME280;34860;48.066;14.124;2023-04-03T06:33:19;97172.28;;;5.72;60.57
49044;BME280;34860;48.066;14.124;2023-04-03T06:36:10;97165.59;;;5.73;60.61
49044;BME280;34860;48.066;14.124;2023-04-03T06:39:00;97162.06;;;5.76;60.63
49044;BME280;34860;48.066;14.124;2023-04-03T06:41:50;97167.56;;;5.80;60.59
49044;BME280;34860;48.066;14.124;2023-04-03T06:44:52;97190.84;;;5.82;60.72
49044;BME280;34860;48.066;14.124;2023-04-03T06:47:40;97181.34;;;5.83;60.61
49044;BME280;34860;48.066;14.124;2023-04-03T06:50:29;97188.84;;;5.87;60.57
49044;BME280;34860;48.066;14.124;2023-04-03T06:53:17;97187.69;;;5.88;60.52
49044;BME280;34860;48.066;14.124;2023-04-03T06:56:08;97180.19;;;5.92;60.53
49044;BME280;34860;48.066;14.124;2023-04-03T06:58:58;97187.28;;;5.93;60.60
49044;BME280;34860;48.066;14.124;2023-04-03T07:01:47;97190.41;;;5.95;60.62
49044;BME280;34860;48.066;14.124;2023-04-03T07:04:35;97188.13;;;5.97;60.62
49044;BME280;34860;48.066;14.124;2023-04-03T07:07:23;97191.25;;;5.99;60.53
49044;BME280;34860;48.066;14.124;2023-04-03T07:10:12;97206.25;;;6.02;60.59
49044;BME280;34860;48.066;14.124;2023-04-03T07:13:02;97190.47;;;6.02;60.70
49044;BME280;34860;48.066;14.124;2023-04-03T07:15:51;97204.66;;;6.04;60.57
49044;BME280;34860;48.066;14.124;2023-04-03T07:18:39;97197.16;;;6.05;60.58
49044;BME280;34860;48.066;14.124;2023-04-03T07:21:28;97211.75;;;6.09;60.66
49044;BME280;34860;48.066;14.124;2023-04-03T07:24:16;97207.44;;;6.11;60.63
49044;BME280;34860;48.066;14.124;2023-04-03T07:27:05;97205.84;;;6.14;60.60
49044;BME280;34860;48.066;14.124;2023-04-03T07:29:56;97212.16;;;6.18;60.64
49044;BME280;34860;48.066;14.124;2023-04-03T07:32:44;97209.38;;;6.22;60.53
49044;BME280;34860;48.066;14.124;2023-04-03T07:35:32;97208.59;;;6.25;60.60
49044;BME280;34860;48.066;14.124;2023-04-03T07:38:20;97208.59;;;6.28;60.64
49044;BME280;34860;48.066;14.124;2023-04-03T07:41:11;97212.16;;;6.32;60.57
49044;BME280;34860;48.066;14.124;2023-04-03T07:44:00;97214.50;;;6.38;60.54
49044;BME280;34860;48.066;14.124;2023-04-03T07:46:50;97217.25;;;6.41;60.55
49044;BME280;34860;48.066;14.124;2023-04-03T07:49:38;97219.63;;;6.46;60.60
49044;BME280;34860;48.066;14.124;2023-04-03T07:52:27;97216.09;;;6.49;60.57
49044;BME280;34860;48.066;14.124;2023-04-03T07:55:15;97221.97;;;6.55;60.44
49044;BME280;34860;48.066;14.124;2023-04-03T07:58:04;97225.13;;;6.57;60.32
49044;BME280;34860;48.066;14.124;2023-04-03T08:00:52;97218.81;;;6.60;60.47
49044;BME280;34860;48.066;14.124;2023-04-03T08:03:42;97227.91;;;6.64;60.41
49044;BME280;34860;48.066;14.124;2023-04-03T08:06:31;97226.72;;;6.69;60.33
49044;BME280;34860;48.066;14.124;2023-04-03T08:09:28;97234.97;;;6.72;60.44
49044;BME280;34860;48.066;14.124;2023-04-03T08:12:16;97230.66;;;6.75;60.37
49044;BME280;34860;48.066;14.124;2023-04-03T08:15:06;97229.84;;;6.78;60.45
49044;BME280;34860;48.066;14.124;2023-04-03T08:17:54;97230.22;;;6.80;60.32
49044;BME280;34860;48.066;14.124;2023-04-03T08:20:45;97229.06;;;6.81;60.46
49044;BME280;34860;48.066;14.124;2023-04-03T08:23:34;97231.00;;;6.81;60.47
49044;BME280;34860;48.066;14.124;2023-04-03T08:26:24;97231.00;;;6.81;60.47
49044;BME280;34860;48.066;14.124;2023-04-03T08:29:14;97237.72;;;6.83;60.45
49044;BME280;34860;48.066;14.124;2023-04-03T08:32:02;97237.34;;;6.81;60.55
49044;BME280;34860;48.066;14.124;2023-04-03T08:34:50;97249.97;;;6.79;60.66
49044;BME280;34860;48.066;14.124;2023-04-03T08:37:39;97249.16;;;6.75;60.70
49044;BME280;34860;48.066;14.124;2023-04-03T08:40:29;97250.38;;;6.70;60.69
49044;BME280;34860;48.066;14.124;2023-04-03T08:43:29;97252.75;;;6.61;60.78
49044;BME280;34860;48.066;14.124;2023-04-03T08:46:20;97260.66;;;6.51;60.81
49044;BME280;34860;48.066;14.124;2023-04-03T08:49:20;97264.59;;;6.43;60.91
49044;BME280;34860;48.066;14.124;2023-04-03T08:52:12;97264.22;;;6.34;61.04
49044;BME280;34860;48.066;14.124;2023-04-03T08:55:05;97259.84;;;6.22;61.18
49044;BME280;34860;48.066;14.124;2023-04-03T08:58:00;97255.13;;;6.15;61.12
49044;BME280;34860;48.066;14.124;2023-04-03T09:00:53;97258.28;;;6.07;61.38
49044;BME280;34860;48.066;14.124;2023-04-03T09:03:43;97261.81;;;6.04;61.07
49044;BME280;34860;48.066;14.124;2023-04-03T09:06:32;97259.03;;;5.96;61.05
49044;BME280;34860;48.066;14.124;2023-04-03T09:09:30;97261.75;;;5.93;61.11
49044;BME280;34860;48.066;14.124;2023-04-03T09:12:24;97251.50;;;5.90;60.95
49044;BME280;34860;48.066;14.124;2023-04-03T09:15:19;97255.44;;;5.89;61.20
49044;BME280;34860;48.066;14.124;2023-04-03T09:18:15;97264.91;;;5.88;60.97
49044;BME280;34860;48.066;14.124;2023-04-03T09:21:09;97258.19;;;5.89;60.90
49044;BME280;34860;48.066;14.124;2023-04-03T09:24:04;97259.41;;;5.91;60.83
49044;BME280;34860;48.066;14.124;2023-04-03T09:26:58;97262.53;;;5.93;60.97
49044;BME280;34860;48.066;14.124;2023-04-03T09:29:52;97259.84;;;5.97;60.73
49044;BME280;34860;48.066;14.124;2023-04-03T09:32:44;97257.09;;;6.00;60.73
49044;BME280;34860;48.066;14.124;2023-04-03T09:35:37;97257.84;;;6.05;60.63
49044;BME280;34860;48.066;14.124;2023-04-03T09:38:33;97262.63;;;6.11;60.70
49044;BME280;34860;48.066;14.124;2023-04-03T09:41:22;97257.50;;;6.13;60.62
49044;BME280;34860;48.066;14.124;2023-04-03T09:44:21;97255.91;;;6.20;60.66
49044;BME280;34860;48.066;14.124;2023-04-03T09:47:22;97256.69;;;6.24;60.60
49044;BME280;34860;48.066;14.124;2023-04-03T09:50:21;97261.03;;;6.28;60.48
49044;BME280;34860;48.066;14.124;2023-04-03T09:53:29;97261.44;;;6.34;60.51
49044;BME280;34860;48.066;14.124;2023-04-03T09:56:28;97259.88;;;6.40;60.48
49044;BME280;34860;48.066;14.124;2023-04-03T09:59:16;97258.28;;;6.43;60.40
49044;BME280;34860;48.066;14.124;2023-04-03T10:02:30;97255.53;;;6.46;60.34
49044;BME280;34860;48.066;14.124;2023-04-03T10:05:31;97259.84;;;6.51;60.40
49044;BME280;34860;48.066;14.124;2023-04-03T10:08:28;97262.22;;;6.56;60.47
49044;BME280;34860;48.066;14.124;2023-04-03T10:11:17;97265.38;;;6.62;60.37
49044;BME280;34860;48.066;14.124;2023-04-03T10:14:16;97255.91;;;6.66;60.40
49044;BME280;34860;48.066;14.124;2023-04-03T10:17:15;97265.38;;;6.72;60.35
49044;BME280;34860;48.066;14.124;2023-04-03T10:20:23;97259.03;;;6.76;60.54
49044;BME280;34860;48.066;14.124;2023-04-03T10:23:17;97263.78;;;6.79;60.46
49044;BME280;34860;48.066;14.124;2023-04-03T10:26:16;97267.72;;;6.81;60.48
49044;BME280;34860;48.066;14.124;2023-04-03T10:29:18;97266.13;;;6.87;60.40
49044;BME280;34860;48.066;14.124;2023-04-03T10:32:20;97268.47;;;6.89;60.43
49044;BME280;34860;48.066;14.124;2023-04-03T10:35:22;97265.34;;;6.94;60.21
49044;BME280;34860;48.066;14.124;2023-04-03T10:38:19;97270.84;;;6.98;60.39
49044;BME280;34860;48.066;14.124;2023-04-03T10:41:13;97258.59;;;7.02;60.20
49044;BME280;34860;48.066;14.124;2023-04-03T10:44:13;97262.94;;;7.07;60.37
49044;BME280;34860;48.066;14.124;2023-04-03T10:47:09;97259.38;;;7.10;59.90
49044;BME280;34860;48.066;14.124;2023-04-03T10:50:02;97259.75;;;7.16;60.39
49044;BME280;34860;48.066;14.124;2023-04-03T10:53:06;97253.41;;;7.19;60.29
49044;BME280;34860;48.066;14.124;2023-04-03T10:56:02;97260.09;;;7.25;60.26
49044;BME280;34860;48.066;14.124;2023-04-03T10:58:56;97253.38;;;7.30;60.18
49044;BME280;34860;48.066;14.124;2023-04-03T11:01:51;97253.75;;;7.35;60.20
49044;BME280;34860;48.066;14.124;2023-04-03T11:04:42;97250.19;;;7.42;60.11
49044;BME280;34860;48.066;14.124;2023-04-03T11:07:37;97240.28;;;7.44;60.09
49044;BME280;34860;48.066;14.124;2023-04-03T11:10:35;97247.75;;;7.51;60.20
49044;BME280;34860;48.066;14.124;2023-04-03T11:13:33;97244.19;;;7.58;60.05
49044;BME280;34860;48.066;14.124;2023-04-03T11:16:25;97240.59;;;7.64;59.83
49044;BME280;34860;48.066;14.124;2023-04-03T11:19:17;97240.56;;;7.68;59.75
49044;BME280;34860;48.066;14.124;2023-04-03T11:22:15;97235.81;;;7.72;60.23
49044;BME280;34860;48.066;14.124;2023-04-03T11:25:13;97232.59;;;7.77;60.03
49044;BME280;34860;48.066;14.124;2023-04-03T11:28:12;97233.75;;;7.80;60.06
49044;BME280;34860;48.066;14.124;2023-04-03T11:31:10;97222.28;;;7.85;59.99
49044;BME280;34860;48.066;14.124;2023-04-03T11:34:10;97224.22;;;7.92;60.02
49044;BME280;34860;48.066;14.124;2023-04-03T11:37:06;97218.63;;;7.99;60.03
49044;BME280;34860;48.066;14.124;2023-04-03T11:40:02;97223.31;;;8.06;59.98
49044;BME280;34860;48.066;14.124;2023-04-03T11:42:52;97218.91;;;8.12;59.96
49044;BME280;34860;48.066;14.124;2023-04-03T11:45:53;97219.28;;;8.17;59.84
49044;BME280;34860;48.066;14.124;2023-04-03T11:48:48;97221.25;;;8.21;59.90
49044;BME280;34860;48.066;14.124;2023-04-03T11:51:40;97234.72;;;8.18;60.03
49044;BME280;34860;48.066;14.124;2023-04-03T11:54:43;97219.28;;;8.17;59.90
49044;BME280;34860;48.066;14.124;2023-04-03T11:58:01;97226.81;;;8.13;59.98
49044;BME280;34860;48.066;14.124;2023-04-03T12:00:58;97226.06;;;8.09;59.96
49044;BME280;34860;48.066;14.124;2023-04-03T12:04:05;97224.13;;;8.06;59.95
49044;BME280;34860;48.066;14.124;2023-04-03T12:07:16;97217.03;;;8.02;60.08
49044;BME280;34860;48.066;14.124;2023-04-03T12:10:17;97213.91;;;7.96;60.14
49044;BME280;34860;48.066;14.124;2023-04-03T12:13:15;97219.06;;;7.94;60.06
49044;BME280;34860;48.066;14.124;2023-04-03T12:16:06;97210.81;;;7.87;60.23
49044;BME280;34860;48.066;14.124;2023-04-03T12:18:58;97216.75;;;7.81;60.03
49044;BME280;34860;48.066;14.124;2023-04-03T12:22:08;97211.66;;;7.76;60.09
49044;BME280;34860;48.066;14.124;2023-04-03T12:24:57;97216.41;;;7.76;60.00
49044;BME280;34860;48.066;14.124;2023-04-03T12:27:48;97207.34;;;7.72;60.11
49044;BME280;34860;48.066;14.124;2023-04-03T12:30:36;97210.91;;;7.69;60.01
49044;BME280;34860;48.066;14.124;2023-04-03T12:33:37;97214.88;;;7.68;60.11
49044;BME280;34860;48.066;14.124;2023-04-03T12:36:33;97216.84;;;7.67;60.05
49044;BME280;34860;48.066;14.124;2023-04-03T12:39:50;97207.38;;;7.64;60.17
49044;BME280;34860;48.066;14.124;2023-04-03T12:42:56;97210.16;;;7.61;59.98
49044;BME280;34860;48.066;14.124;2023-04-03T12:45:59;97207.81;;;7.56;60.09
49044;BME280;34860;48.066;14.124;2023-04-03T12:48:54;97203.09;;;7.53;60.11
49044;BME280;34860;48.066;14.124;2023-04-03T12:51:44;97201.53;;;7.48;59.99
49044;BME280;34860;48.066;14.124;2023-04-03T12:54:36;97207.50;;;7.43;60.16
49044;BME280;34860;48.066;14.124;2023-04-03T12:57:27;97208.31;;;7.36;60.21
49044;BME280;34860;48.066;14.124;2023-04-03T13:00:32;97209.53;;;7.32;60.29
49044;BME280;34860;48.066;14.124;2023-04-03T13:03:23;97216.25;;;7.27;60.02
49044;BME280;34860;48.066;14.124;2023-04-03T13:06:18;97215.50;;;7.19;60.19
49044;BME280;34860;48.066;14.124;2023-04-03T13:09:19;97211.97;;;7.15;60.25
49044;BME280;34860;48.066;14.124;2023-04-03T13:12:12;97215.94;;;7.11;60.18
49044;BME280;34860;48.066;14.124;2023-04-03T13:15:11;97213.19;;;7.07;60.14
49044;BME280;34860;48.066;14.124;2023-04-03T13:17:59;97212.00;;;7.04;60.24
49044;BME280;34860;48.066;14.124;2023-04-03T13:20:47;97217.16;;;7.02;60.11
49044;BME280;34860;48.066;14.124;2023-04-03T13:23:40;97211.22;;;7.00;60.13
49044;BME280;34860;48.066;14.124;2023-04-03T13:26:31;97211.63;;;6.99;60.08
49044;BME280;34860;48.066;14.124;2023-04-03T13:29:26;97218.34;;;6.98;60.11
49044;BME280;34860;48.066;14.124;2023-04-03T13:32:20;97215.22;;;6.96;60.04
49044;BME280;34860;48.066;14.124;2023-04-03T13:35:25;97217.16;;;6.95;59.91
49044;BME280;34860;48.066;14.124;2023-04-03T13:38:23;97211.22;;;6.97;60.00
49044;BME280;34860;48.066;14.124;2023-04-03T13:41:29;97208.88;;;6.95;60.02
49044;BME280;34860;48.066;14.124;2023-04-03T13:44:26;97201.38;;;6.96;59.91
49044;BME280;34860;48.066;14.124;2023-04-03T13:47:19;97200.56;;;6.95;59.97
49044;BME280;34860;48.066;14.124;2023-04-03T13:50:17;97196.63;;;6.96;59.93
49044;BME280;34860;48.066;14.124;2023-04-03T13:53:11;97196.25;;;6.98;59.91
49044;BME280;34860;48.066;14.124;2023-04-03T13:56:07;97185.94;;;7.02;59.80
49044;BME280;34860;48.066;14.124;2023-04-03T13:59:01;97190.66;;;7.05;59.76
49044;BME280;34860;48.066;14.124;2023-04-03T14:01:53;97178.81;;;7.08;59.71
49044;BME280;34860;48.066;14.124;2023-04-03T14:04:51;97186.69;;;7.17;59.76
49044;BME280;34860;48.066;14.124;2023-04-03T14:07:42;97182.69;;;7.28;59.75
49044;BME280;34860;48.066;14.124;2023-04-03T14:10:31;97180.63;;;7.43;59.67
49044;BME280;34860;48.066;14.124;2023-04-03T14:13:20;97180.97;;;7.53;59.50
49044;BME280;34860;48.066;14.124;2023-04-03T14:16:14;97182.09;;;7.62;59.71
49044;BME280;34860;48.066;14.124;2023-04-03T14:19:03;97184.44;;;7.71;59.46
49044;BME280;34860;48.066;14.124;2023-04-03T14:21:54;97183.97;;;7.80;59.36
49044;BME280;34860;48.066;14.124;2023-04-03T14:24:42;97188.69;;;7.87;59.37
49044;BME280;34860;48.066;14.124;2023-04-03T14:27:35;97181.91;;;7.91;59.37
49044;BME280;34860;48.066;14.124;2023-04-03T14:30:27;97183.06;;;7.94;59.43
49044;BME280;34860;48.066;14.124;2023-04-03T14:33:20;97183.44;;;7.96;59.29
49044;BME280;34860;48.066;14.124;2023-04-03T14:36:13;97178.69;;;8.00;59.41
49044;BME280;34860;48.066;14.124;2023-04-03T14:39:03;97184.19;;;8.04;59.33
49044;BME280;34860;48.066;14.124;2023-04-03T14:41:51;97189.69;;;8.07;59.26
49044;BME280;34860;48.066;14.124;2023-04-03T14:44:41;97182.94;;;8.12;59.29
49044;BME280;34860;48.066;14.124;2023-04-03T14:47:30;97184.09;;;8.14;59.21
49044;BME280;34860;48.066;14.124;2023-04-03T14:50:26;97184.47;;;8.16;59.23
49044;BME280;34860;48.066;14.124;2023-04-03T14:53:14;97194.75;;;8.19;59.26
49044;BME280;34860;48.066;14.124;2023-04-03T14:56:11;97189.59;;;8.18;59.26
49044;BME280;34860;48.066;14.124;2023-04-03T14:59:00;97186.09;;;8.14;59.22
49044;BME280;34860;48.066;14.124;2023-04-03T15:01:50;97185.31;;;8.10;59.23
49044;BME280;34860;48.066;14.124;2023-04-03T15:04:38;97189.69;;;8.07;59.33
49044;BME280;34860;48.066;14.124;2023-04-03T15:07:30;97190.09;;;8.06;59.20
49044;BME280;34860;48.066;14.124;2023-04-03T15:10:21;97190.13;;;8.02;59.32
49044;BME280;34860;48.066;14.124;2023-04-03T15:13:11;97186.59;;;8.02;59.27